Comunidad Juan Otero, Puerto Rico
Current Conditions -  °F | °C
As of 5:58 PM on Sunday 23 Nov 2014 (Local Time) from TJIG Reporting Station
Broken Clouds Broken Clouds  
Wind Chill: 82°   Ceiling: 6000
Heat Index: 87°   Visibility: 10mi
Dew Point: 72°   Wind: 18mph
Humidity: 70%   Direction: 100°E
Pressure: 30.01"   Gusts: NA
Location:  18.3346°N, 66.4186°W
Report Text: TJIG 232158Z 10016KT 10SM SCT030 BKN060 28/22 A3001 RMK RY09 IN USE ATIS L
Loading
Personal Weather Stations






























Interactive Weather Map New forecast layout! Learn more

10-Day Weather Forecast

Advertisements
Track Severe Weather on mobile